Time;durP1;ratioP1;P1;durP2;ratioP2;P2;SDS_P1;SDS_P2;PMS_P1;PMS_P2;Temp;Humidity;BMP_temperature;BMP_pressure;BME280_temperature;BME280_humidity;BME280_pressure;Samples;Min_cycle;Max_cycle;Signal;HPM_P1;HPM_P2
2024/02/14 00:02:16;;;;;;;42.80;20.42;;;2.00;99.90;;;;;;5078631;28;20122;-77
2024/02/14 00:04:41;;;;;;;48.45;21.60;;;2.00;99.90;;;;;;5078664;28;20032;-77
2024/02/14 00:07:07;;;;;;;48.83;22.60;;;2.00;99.90;;;;;;5078730;28;20352;-77
2024/02/14 00:09:33;;;;;;;48.80;21.30;;;2.00;99.90;;;;;;5078489;28;20026;-77
2024/02/14 00:11:58;;;;;;;39.10;19.80;;;2.00;99.90;;;;;;4996788;28;20066;-77
2024/02/14 00:14:24;;;;;;;40.50;20.33;;;2.00;99.90;;;;;;5000307;28;20076;-77
2024/02/14 00:16:50;;;;;;;45.72;20.48;;;2.00;99.90;;;;;;5004919;28;20045;-77
2024/02/14 00:19:16;;;;;;;48.58;20.70;;;2.00;99.90;;;;;;5073521;28;20167;-77
2024/02/14 00:21:42;;;;;;;52.15;23.10;;;1.90;99.90;;;;;;5078116;28;20030;-77
2024/02/14 00:24:08;;;;;;;47.65;20.38;;;1.90;99.90;;;;;;5078817;28;20025;-77
2024/02/14 00:26:34;;;;;;;47.05;20.08;;;1.90;99.90;;;;;;5078690;28;20038;-77
2024/02/14 00:29:00;;;;;;;49.13;22.05;;;1.90;99.90;;;;;;5082346;28;20394;-77
2024/02/14 00:31:25;;;;;;;47.05;21.67;;;1.90;99.90;;;;;;5010620;28;20026;-77
2024/02/14 00:33:51;;;;;;;47.40;23.02;;;1.90;99.90;;;;;;5077315;28;20022;-77
2024/02/14 00:36:17;;;;;;;48.00;21.15;;;1.90;99.90;;;;;;5078508;28;20058;-77
2024/02/14 00:38:43;;;;;;;54.65;22.08;;;1.90;99.90;;;;;;4998508;28;20046;-77
2024/02/14 00:41:11;;;;;;;52.65;20.80;;;1.90;99.90;;;;;;5010098;28;20033;-77
2024/02/14 00:43:37;;;;;;;48.55;20.73;;;1.90;99.90;;;;;;5000287;28;20120;-77
2024/02/14 00:46:03;;;;;;;51.08;21.45;;;1.80;99.90;;;;;;5067597;28;20467;-77
2024/02/14 00:48:28;;;;;;;46.38;20.42;;;1.70;99.90;;;;;;5007672;28;20099;-77
2024/02/14 00:50:54;;;;;;;47.92;21.27;;;1.70;99.90;;;;;;4998373;28;20124;-77
2024/02/14 00:53:20;;;;;;;43.85;20.48;;;1.70;99.90;;;;;;5009867;28;20095;-77
2024/02/14 00:55:46;;;;;;;37.83;19.25;;;1.70;99.90;;;;;;5002778;28;20057;-77
2024/02/14 00:58:12;;;;;;;43.10;20.80;;;1.60;99.90;;;;;;4993759;28;20058;-77
2024/02/14 01:00:37;;;;;;;47.70;20.77;;;1.60;99.90;;;;;;5010264;28;20118;-76
2024/02/14 01:03:03;;;;;;;52.40;23.42;;;1.50;99.90;;;;;;5074753;28;20026;-77
2024/02/14 01:05:29;;;;;;;56.83;24.63;;;1.50;99.90;;;;;;5058344;28;20019;-76
2024/02/14 01:07:54;;;;;;;51.33;24.27;;;1.40;99.90;;;;;;5004836;28;20056;-77
2024/02/14 01:10:20;;;;;;;55.78;26.58;;;1.40;99.90;;;;;;5078268;28;20022;-76
2024/02/14 01:12:46;;;;;;;52.58;23.58;;;1.40;99.90;;;;;;4996755;28;20496;-76
2024/02/14 01:15:12;;;;;;;51.15;24.17;;;1.40;99.90;;;;;;5010307;28;20018;-78
2024/02/14 01:17:38;;;;;;;61.60;26.60;;;1.30;99.90;;;;;;5065606;28;20043;-77
2024/02/14 01:20:08;;;;;;;51.58;26.63;;;1.30;99.90;;;;;;4998012;28;20018;-77
2024/02/14 01:22:35;;;;;;;57.83;25.00;;;1.30;99.90;;;;;;5067141;28;20058;-77
2024/02/14 01:25:01;;;;;;;60.30;28.48;;;1.30;99.90;;;;;;4991701;28;20476;-77
2024/02/14 01:27:28;;;;;;;62.00;26.95;;;1.30;99.90;;;;;;5005779;28;20045;-77
2024/02/14 01:29:55;;;;;;;50.40;24.33;;;1.40;99.90;;;;;;5077496;28;20024;-77
2024/02/14 01:32:20;;;;;;;60.10;24.45;;;1.40;99.90;;;;;;5076881;28;20038;-77
2024/02/14 01:34:46;;;;;;;57.60;26.40;;;1.40;99.90;;;;;;5009763;28;20026;-77
2024/02/14 01:37:12;;;;;;;51.13;23.80;;;1.50;99.90;;;;;;5077038;28;20046;-77
2024/02/14 01:39:37;;;;;;;55.90;25.65;;;1.50;99.90;;;;;;5009496;28;20053;-77
2024/02/14 01:42:07;;;;;;;67.60;30.60;;;1.50;99.90;;;;;;5007684;28;20018;-77
2024/02/14 01:44:33;;;;;;;53.78;27.08;;;1.50;99.90;;;;;;5059594;28;20500;-77
2024/02/14 01:47:00;;;;;;;54.92;27.58;;;1.50;99.90;;;;;;5063148;28;20105;-76
2024/02/14 01:49:29;;;;;;;53.55;26.38;;;1.50;99.90;;;;;;4999889;28;20034;-76
2024/02/14 01:51:59;;;;;;;59.25;28.80;;;1.50;99.90;;;;;;5002360;28;20035;-76
2024/02/14 01:54:26;;;;;;;56.15;26.88;;;1.50;99.90;;;;;;5067936;28;20029;-76
2024/02/14 01:56:54;;;;;;;63.78;29.50;;;1.50;99.90;;;;;;5072353;28;20440;-77
2024/02/14 01:59:20;;;;;;;56.17;26.60;;;1.40;99.90;;;;;;5073387;28;20034;-75
2024/02/14 02:01:46;;;;;;;55.75;27.23;;;1.40;99.90;;;;;;5075875;28;20030;-77
2024/02/14 02:04:12;;;;;;;58.67;28.42;;;1.30;99.90;;;;;;4999005;28;20035;-77
2024/02/14 02:06:40;;;;;;;55.72;26.25;;;1.40;99.90;;;;;;5075679;28;20368;-74
2024/02/14 02:09:07;;;;;;;53.45;25.52;;;1.30;99.90;;;;;;5009629;28;20034;-77
2024/02/14 02:11:45;;;;;;;50.92;24.33;;;1.20;99.90;;;;;;5005028;28;20026;-77
2024/02/14 02:14:12;;;;;;;49.60;26.33;;;1.20;99.90;;;;;;5004520;28;20042;-76
2024/02/14 02:16:38;;;;;;;51.58;23.98;;;1.20;99.90;;;;;;5005868;28;20471;-77
2024/02/14 02:19:08;;;;;;;47.63;22.25;;;1.10;99.90;;;;;;5081164;28;20021;-74
2024/02/14 02:21:34;;;;;;;46.80;22.60;;;1.10;99.90;;;;;;5010027;28;20022;-76
2024/02/14 02:24:00;;;;;;;50.42;22.98;;;1.10;99.90;;;;;;5009805;28;20390;-74
2024/02/14 02:26:26;;;;;;;47.58;22.70;;;1.00;99.90;;;;;;5010042;28;20022;-77
2024/02/14 02:28:52;;;;;;;53.50;22.30;;;1.00;99.90;;;;;;5009808;28;20531;-77
2024/02/14 02:31:18;;;;;;;47.90;21.42;;;0.90;99.90;;;;;;5010061;28;20139;-77
2024/02/14 02:33:43;;;;;;;38.92;21.13;;;1.00;99.90;;;;;;5009592;28;20093;-77
2024/02/14 02:36:09;;;;;;;48.00;21.40;;;0.90;99.90;;;;;;5009785;28;20014;-74
2024/02/14 02:38:36;;;;;;;41.47;19.73;;;0.90;99.90;;;;;;5009593;28;20050;-77
2024/02/14 02:41:04;;;;;;;39.60;19.88;;;0.90;99.90;;;;;;5077606;28;20067;-76
2024/02/14 02:43:30;;;;;;;39.33;18.98;;;0.90;99.90;;;;;;5009576;28;20038;-77
2024/02/14 02:45:57;;;;;;;41.22;19.30;;;0.90;99.90;;;;;;5077276;28;20041;-76
2024/02/14 02:48:23;;;;;;;44.30;21.25;;;0.80;99.90;;;;;;5007975;28;20026;-76
2024/02/14 02:50:49;;;;;;;47.85;21.67;;;0.90;99.90;;;;;;5077443;28;20031;-74
2024/02/14 02:53:15;;;;;;;42.10;20.73;;;0.80;99.90;;;;;;5077056;28;20022;-74
2024/02/14 02:55:41;;;;;;;39.03;19.70;;;0.80;99.90;;;;;;5077193;28;20471;-74
2024/02/14 02:58:07;;;;;;;44.08;21.13;;;0.80;99.90;;;;;;5085902;28;20026;-77
2024/02/14 03:00:33;;;;;;;46.78;20.95;;;0.80;99.90;;;;;;5069193;28;20037;-75
2024/02/14 03:02:59;;;;;;;43.45;19.77;;;0.80;99.90;;;;;;5009087;28;20055;-73
2024/02/14 03:05:25;;;;;;;45.05;22.75;;;0.90;99.90;;;;;;5001895;28;20105;-76
2024/02/14 03:07:52;;;;;;;39.03;20.33;;;0.90;99.90;;;;;;5009046;28;20068;-75
2024/02/14 03:10:18;;;;;;;41.08;20.33;;;0.80;99.90;;;;;;5008317;28;20022;-73
2024/02/14 03:12:50;;;;;;;39.78;20.40;;;0.90;99.90;;;;;;5047695;28;20095;-74
2024/02/14 03:15:16;;;;;;;43.55;20.63;;;0.80;99.90;;;;;;5076716;28;20387;-74
2024/02/14 03:17:42;;;;;;;43.55;21.65;;;0.80;99.90;;;;;;5079423;28;20054;-74
2024/02/14 03:20:15;;;;;;;40.42;20.33;;;0.70;99.90;;;;;;5012850;28;20427;-74
2024/02/14 03:22:46;;;;;;;47.58;21.95;;;0.70;99.90;;;;;;5012524;28;20479;-76
2024/02/14 03:25:16;;;;;;;36.57;19.63;;;0.70;99.90;;;;;;5012848;28;20022;-74
2024/02/14 03:27:42;;;;;;;45.95;21.25;;;0.70;99.90;;;;;;5080434;28;20094;-74
2024/02/14 03:30:08;;;;;;;40.83;21.55;;;0.70;99.90;;;;;;5097673;28;20022;-74
2024/02/14 03:32:33;;;;;;;42.75;20.90;;;0.60;99.90;;;;;;5080562;28;20074;-77
2024/02/14 03:35:00;;;;;;;40.13;20.25;;;0.50;99.90;;;;;;5080439;28;20109;-74
2024/02/14 03:37:26;;;;;;;41.78;20.45;;;0.50;99.90;;;;;;5012228;28;20030;-74
2024/02/14 03:39:52;;;;;;;41.95;20.83;;;0.40;99.90;;;;;;5080396;28;20092;-74
2024/02/14 03:42:19;;;;;;;41.60;20.95;;;0.40;99.90;;;;;;5088485;28;20100;-75
2024/02/14 03:44:45;;;;;;;41.05;19.38;;;0.40;99.90;;;;;;5079981;28;20429;-77
2024/02/14 03:47:13;;;;;;;41.40;21.27;;;0.40;99.90;;;;;;5012096;28;20044;-74
2024/02/14 03:49:40;;;;;;;42.10;21.10;;;0.40;99.90;;;;;;5080297;28;20022;-76
2024/02/14 03:52:09;;;;;;;38.85;19.67;;;0.30;99.90;;;;;;5080754;28;20109;-74
2024/02/14 03:54:38;;;;;;;40.40;19.25;;;0.30;99.90;;;;;;5012272;28;20057;-76
2024/02/14 03:57:08;;;;;;;46.42;21.15;;;0.30;99.90;;;;;;5079813;28;20510;-75
2024/02/14 03:59:36;;;;;;;36.63;19.92;;;0.30;99.90;;;;;;5009696;28;20101;-74
2024/02/14 04:02:01;;;;;;;41.28;19.90;;;0.20;99.90;;;;;;5080161;28;20073;-76
2024/02/14 04:04:27;;;;;;;39.20;19.02;;;0.20;99.90;;;;;;5010266;28;20045;-75
2024/02/14 04:06:53;;;;;;;42.72;20.55;;;0.10;99.90;;;;;;5080129;28;20764;-74
2024/02/14 04:09:18;;;;;;;40.45;21.27;;;0.10;99.90;;;;;;5080308;28;20022;-75
2024/02/14 04:11:44;;;;;;;38.88;18.52;;;0.10;99.90;;;;;;5012252;28;20097;-76
2024/02/14 04:14:10;;;;;;;41.30;19.92;;;0.10;99.90;;;;;;5012661;28;20018;-74
2024/02/14 04:16:36;;;;;;;48.28;20.65;;;0.10;99.90;;;;;;5079985;28;20637;-76
2024/02/14 04:19:02;;;;;;;36.35;18.60;;;0.00;99.90;;;;;;5080171;28;20117;-74
2024/02/14 04:21:30;;;;;;;40.08;19.30;;;0.00;99.90;;;;;;5079719;28;20111;-76
2024/02/14 04:23:56;;;;;;;44.17;20.88;;;0.00;99.90;;;;;;5096792;28;20037;-77
2024/02/14 04:26:22;;;;;;;51.92;21.95;;;-0.10;99.90;;;;;;5007146;28;20030;-74
2024/02/14 04:28:48;;;;;;;44.72;19.15;;;-0.10;99.90;;;;;;5003543;28;20054;-74
2024/02/14 04:31:14;;;;;;;40.88;19.77;;;-0.10;99.90;;;;;;5079456;28;20384;-76
2024/02/14 04:33:39;;;;;;;42.65;20.80;;;-0.10;99.90;;;;;;5096392;28;20084;-77
2024/02/14 04:36:06;;;;;;;43.40;20.45;;;-0.20;99.90;;;;;;5088859;28;20026;-74
2024/02/14 04:38:32;;;;;;;41.65;21.77;;;-0.20;99.90;;;;;;5095472;28;20042;-77
2024/02/14 04:40:58;;;;;;;44.17;22.83;;;-0.20;99.90;;;;;;5011624;28;20071;-74
2024/02/14 04:43:26;;;;;;;46.67;20.63;;;-0.20;99.90;;;;;;5011669;28;20130;-76
2024/02/14 04:45:52;;;;;;;44.97;22.10;;;-0.30;99.90;;;;;;5079761;28;20548;-75
2024/02/14 04:48:18;;;;;;;41.65;22.30;;;-0.30;99.90;;;;;;5011329;28;20026;-73
2024/02/14 04:50:43;;;;;;;44.10;20.65;;;-0.30;99.90;;;;;;5079558;28;20026;-74
2024/02/14 04:53:09;;;;;;;42.10;22.48;;;-0.30;99.90;;;;;;5006636;28;20014;-77
2024/02/14 04:55:34;;;;;;;41.95;20.42;;;-0.40;99.90;;;;;;5071098;28;20026;-74
2024/02/14 04:58:00;;;;;;;44.88;21.00;;;-0.40;99.90;;;;;;5011373;28;20022;-75
2024/02/14 05:00:27;;;;;;;40.47;21.85;;;-0.30;99.90;;;;;;5079487;28;20022;-74
2024/02/14 05:02:53;;;;;;;50.08;21.17;;;-0.40;99.90;;;;;;5011094;28;20033;-74
2024/02/14 05:05:20;;;;;;;40.97;19.85;;;-0.40;99.90;;;;;;5004710;28;20534;-76
2024/02/14 05:07:46;;;;;;;41.40;21.15;;;-0.40;99.90;;;;;;5011040;28;20074;-76
2024/02/14 05:10:11;;;;;;;42.15;20.48;;;-0.40;99.90;;;;;;5011365;28;20538;-74
2024/02/14 05:12:37;;;;;;;41.97;20.05;;;-0.30;99.90;;;;;;5010806;28;20029;-76
2024/02/14 05:15:04;;;;;;;43.97;22.35;;;-0.40;99.90;;;;;;5011539;28;20025;-76
2024/02/14 05:17:30;;;;;;;46.67;23.23;;;-0.40;99.90;;;;;;5078625;28;20014;-74
2024/02/14 05:19:56;;;;;;;40.50;21.77;;;-0.40;99.90;;;;;;5078637;28;20471;-76
2024/02/14 05:22:22;;;;;;;47.13;23.52;;;-0.40;99.90;;;;;;5010976;28;20034;-74
2024/02/14 05:24:48;;;;;;;49.03;26.70;;;-0.40;99.90;;;;;;5078703;28;20018;-74
2024/02/14 05:27:13;;;;;;;50.85;23.73;;;-0.40;99.90;;;;;;5011098;28;20036;-75
2024/02/14 05:29:39;;;;;;;47.60;23.92;;;-0.40;99.90;;;;;;5011064;28;20034;-74
2024/02/14 05:32:05;;;;;;;44.72;23.60;;;-0.50;99.90;;;;;;5010904;28;20053;-73
2024/02/14 05:34:31;;;;;;;45.70;24.92;;;-0.50;99.90;;;;;;5011135;28;20022;-75
2024/02/14 05:36:57;;;;;;;42.28;22.80;;;-0.60;99.90;;;;;;5078541;28;20388;-75
2024/02/14 05:39:22;;;;;;;44.83;22.85;;;-0.60;99.90;;;;;;5078621;28;20046;-73
2024/02/14 05:41:49;;;;;;;48.40;23.95;;;-0.60;99.90;;;;;;5010537;28;20045;-75
2024/02/14 05:44:14;;;;;;;49.42;24.55;;;-0.60;99.90;;;;;;5011012;28;20026;-74
2024/02/14 05:46:41;;;;;;;50.88;24.77;;;-0.60;99.90;;;;;;5079401;28;20018;-77
2024/02/14 05:49:06;;;;;;;52.10;24.02;;;-0.70;99.90;;;;;;5078968;28;20033;-76
2024/02/14 05:51:32;;;;;;;48.35;23.67;;;-0.70;99.90;;;;;;5010692;28;20029;-74
2024/02/14 05:53:58;;;;;;;45.25;23.67;;;-0.80;99.90;;;;;;5079728;28;20029;-75
2024/02/14 05:56:24;;;;;;;47.22;24.10;;;-0.80;99.90;;;;;;5010555;28;20018;-76
2024/02/14 05:58:49;;;;;;;51.58;25.13;;;-0.80;99.90;;;;;;5010567;28;20368;-73
2024/02/14 06:01:16;;;;;;;39.47;19.65;;;-0.80;99.90;;;;;;5081174;28;20021;-74
2024/02/14 06:03:43;;;;;;;36.00;18.58;;;-0.90;99.90;;;;;;5077792;28;20041;-74
2024/02/14 06:06:08;;;;;;;31.77;17.02;;;-0.90;99.90;;;;;;5078210;28;20534;-74
2024/02/14 06:08:34;;;;;;;37.15;19.77;;;-0.90;99.90;;;;;;5010497;28;20097;-77
2024/02/14 06:10:59;;;;;;;48.38;24.05;;;-0.90;99.90;;;;;;5077841;28;20071;-74
2024/02/14 06:13:25;;;;;;;40.53;21.77;;;-0.90;99.90;;;;;;5078104;28;20057;-76
2024/02/14 06:15:50;;;;;;;51.60;24.85;;;-1.00;99.90;;;;;;5009831;28;20515;-74
2024/02/14 06:18:16;;;;;;;43.67;24.48;;;-1.00;99.90;;;;;;5078186;28;20448;-73
2024/02/14 06:20:42;;;;;;;52.78;23.15;;;-1.00;99.90;;;;;;5093511;28;20026;-74
2024/02/14 06:23:08;;;;;;;53.25;25.17;;;-1.00;99.90;;;;;;5094464;28;20045;-76
2024/02/14 06:25:33;;;;;;;56.63;25.10;;;-1.00;99.90;;;;;;5010225;28;20160;-74
2024/02/14 06:27:59;;;;;;;48.78;25.50;;;-1.00;99.90;;;;;;5010379;28;20029;-74
2024/02/14 06:30:25;;;;;;;55.08;28.55;;;-1.00;99.90;;;;;;5010387;28;20032;-74
2024/02/14 06:32:50;;;;;;;60.22;29.15;;;-0.90;99.90;;;;;;5078112;28;20592;-73
2024/02/14 06:35:18;;;;;;;58.88;27.95;;;-0.90;99.90;;;;;;5093837;28;20026;-75
2024/02/14 06:37:44;;;;;;;64.95;29.63;;;-0.90;99.90;;;;;;5009845;28;20388;-73
2024/02/14 06:40:11;;;;;;;59.65;30.80;;;-0.90;99.90;;;;;;5002494;28;20030;-73
2024/02/14 06:42:37;;;;;;;64.50;31.38;;;-0.90;99.90;;;;;;5009831;28;20203;-74
2024/02/14 06:45:03;;;;;;;62.63;29.80;;;-0.80;99.90;;;;;;5009629;28;20033;-76
2024/02/14 06:47:29;;;;;;;60.10;28.98;;;-0.80;99.90;;;;;;5010069;28;20079;-76
2024/02/14 06:49:56;;;;;;;65.63;33.65;;;-0.80;99.90;;;;;;5077633;28;20014;-76
2024/02/14 06:52:21;;;;;;;66.43;29.83;;;-0.70;99.90;;;;;;5091407;28;20026;-74
2024/02/14 06:54:48;;;;;;;68.70;30.73;;;-0.60;99.90;;;;;;5013150;28;20037;-76
2024/02/14 06:57:14;;;;;;;68.43;32.63;;;-0.60;99.90;;;;;;5013366;28;20057;-74
2024/02/14 06:59:39;;;;;;;71.38;32.28;;;-0.50;99.90;;;;;;5081463;28;20129;-74
2024/02/14 07:02:06;;;;;;;60.67;30.70;;;-0.40;99.90;;;;;;5013290;28;20108;-76
2024/02/14 07:04:32;;;;;;;63.47;32.00;;;-0.30;99.90;;;;;;5012666;28;20053;-75
2024/02/14 07:06:57;;;;;;;69.75;34.97;;;-0.20;99.90;;;;;;5012938;28;20046;-76
2024/02/14 07:09:25;;;;;;;60.63;30.45;;;-0.10;99.90;;;;;;5012964;28;20030;-74
2024/02/14 07:11:51;;;;;;;73.07;33.05;;;0.00;99.90;;;;;;5013149;28;20030;-74
2024/02/14 07:14:16;;;;;;;69.32;32.67;;;0.00;99.90;;;;;;5013050;28;20086;-73
2024/02/14 07:16:42;;;;;;;74.70;34.72;;;0.20;99.90;;;;;;5081219;28;20048;-76
2024/02/14 07:19:07;;;;;;;75.20;35.13;;;0.20;99.90;;;;;;5097288;28;20024;-75
2024/02/14 07:21:33;;;;;;;78.65;34.45;;;0.40;99.90;;;;;;5012924;28;20086;-75
2024/02/14 07:23:59;;;;;;;76.75;35.13;;;0.50;99.90;;;;;;5012859;28;20071;-73
2024/02/14 07:26:24;;;;;;;73.38;34.47;;;0.60;99.90;;;;;;5081007;28;20026;-75
2024/02/14 07:28:50;;;;;;;78.15;35.00;;;0.70;99.90;;;;;;5012643;28;20018;-73
2024/02/14 07:31:15;;;;;;;66.68;34.03;;;0.80;99.90;;;;;;5078924;28;20468;-73
2024/02/14 07:33:42;;;;;;;65.22;33.13;;;0.90;99.90;;;;;;5074818;28;20040;-73
2024/02/14 07:36:09;;;;;;;71.00;33.88;;;1.10;99.90;;;;;;5070580;28;20466;-75
2024/02/14 07:38:34;;;;;;;66.15;34.35;;;1.20;99.90;;;;;;5078254;28;20052;-75
2024/02/14 07:41:00;;;;;;;72.65;35.45;;;1.30;99.90;;;;;;5012421;28;20018;-74
2024/02/14 07:43:25;;;;;;;73.45;35.65;;;1.40;99.90;;;;;;5012587;28;20486;-73
2024/02/14 07:45:51;;;;;;;70.47;35.92;;;1.50;99.90;;;;;;5076723;28;20064;-73
2024/02/14 07:48:17;;;;;;;69.95;34.58;;;1.60;99.90;;;;;;5012648;28;20034;-73
2024/02/14 07:50:42;;;;;;;66.90;34.20;;;1.80;99.90;;;;;;5007285;28;20495;-76
2024/02/14 07:53:08;;;;;;;67.47;34.00;;;1.90;99.90;;;;;;5075401;28;20026;-76
2024/02/14 07:55:33;;;;;;;67.32;34.10;;;2.00;99.90;;;;;;4993765;28;20468;-76
2024/02/14 07:58:00;;;;;;;69.07;33.65;;;2.10;99.90;;;;;;5077635;28;20022;-76
2024/02/14 08:00:25;;;;;;;70.65;36.40;;;2.20;99.90;;;;;;5012357;28;20083;-73
2024/02/14 08:02:51;;;;;;;73.18;36.97;;;2.30;99.90;;;;;;4999229;28;20038;-73
2024/02/14 08:05:19;;;;;;;77.38;39.38;;;2.40;99.90;;;;;;4998154;28;20033;-73
2024/02/14 08:07:46;;;;;;;80.97;38.60;;;2.50;99.90;;;;;;5064763;28;20084;-74
2024/02/14 08:10:11;;;;;;;78.82;36.90;;;2.70;99.90;;;;;;5000417;28;20031;-73
2024/02/14 08:12:37;;;;;;;72.85;36.28;;;2.80;99.90;;;;;;5068397;28;20022;-74
2024/02/14 08:15:04;;;;;;;80.75;40.40;;;2.90;99.90;;;;;;5000959;28;20130;-76
2024/02/14 08:17:30;;;;;;;80.93;36.10;;;3.00;99.90;;;;;;5001294;28;20060;-74
2024/02/14 08:19:56;;;;;;;72.15;34.55;;;3.20;99.90;;;;;;5078361;28;20065;-75
2024/02/14 08:22:21;;;;;;;64.22;31.60;;;3.20;99.90;;;;;;5064100;28;20082;-74
2024/02/14 08:24:47;;;;;;;60.13;31.95;;;3.30;99.90;;;;;;5001881;28;20491;-76
2024/02/14 08:27:12;;;;;;;69.13;32.53;;;3.40;99.90;;;;;;5005421;28;20053;-76
2024/02/14 08:29:38;;;;;;;66.15;32.40;;;3.50;99.90;;;;;;4992030;28;20031;-75
2024/02/14 08:32:04;;;;;;;63.60;31.95;;;3.60;99.90;;;;;;5000800;28;20026;-77
2024/02/14 08:34:30;;;;;;;53.55;28.40;;;3.60;99.90;;;;;;5011986;28;20033;-75
2024/02/14 08:36:56;;;;;;;59.85;29.95;;;3.70;99.90;;;;;;5006583;28;20018;-75
2024/02/14 08:39:21;;;;;;;57.10;28.13;;;3.80;99.90;;;;;;5005143;28;20099;-75
2024/02/14 08:41:47;;;;;;;57.60;28.30;;;3.90;99.90;;;;;;5016824;28;20461;-74
2024/02/14 08:44:13;;;;;;;59.53;27.38;;;4.00;99.90;;;;;;4998844;28;20476;-75
2024/02/14 08:46:42;;;;;;;45.63;23.63;;;4.10;99.90;;;;;;5031504;28;20105;-76
2024/02/14 08:49:08;;;;;;;34.83;18.70;;;4.20;99.90;;;;;;5009374;28;20040;-75
2024/02/14 08:51:37;;;;;;;41.63;21.45;;;4.20;99.90;;;;;;5077475;28;20120;-73
2024/02/14 08:54:06;;;;;;;33.90;17.75;;;4.30;99.90;;;;;;4994749;28;20026;-73
2024/02/14 08:56:33;;;;;;;40.47;20.15;;;4.40;99.90;;;;;;5005594;28;20026;-73
2024/02/14 08:59:02;;;;;;;37.55;20.50;;;4.50;99.90;;;;;;4993831;28;20029;-73
2024/02/14 09:01:29;;;;;;;39.08;20.73;;;4.60;99.90;;;;;;5001362;28;20051;-74
2024/02/14 09:03:55;;;;;;;42.65;23.08;;;4.70;99.90;;;;;;5066467;28;20054;-75
2024/02/14 09:06:21;;;;;;;36.25;19.20;;;4.80;99.90;;;;;;4998287;28;20372;-75
2024/02/14 09:08:47;;;;;;;37.65;20.40;;;4.90;99.90;;;;;;5072552;28;20384;-76
2024/02/14 09:11:12;;;;;;;42.42;22.23;;;5.00;99.90;;;;;;5064233;28;20014;-75
2024/02/14 09:13:40;;;;;;;37.20;20.00;;;5.00;99.90;;;;;;4990910;28;20473;-76
2024/02/14 09:16:07;;;;;;;33.15;17.70;;;5.00;99.90;;;;;;4995132;28;20034;-76
2024/02/14 09:18:39;;;;;;;35.45;20.50;;;5.10;99.90;;;;;;4997991;28;20011;-77
2024/02/14 09:21:05;;;;;;;41.88;20.60;;;5.20;99.90;;;;;;5067874;28;20034;-76
2024/02/14 09:23:31;;;;;;;41.42;19.42;;;5.20;99.90;;;;;;5001050;28;20038;-76
2024/02/14 09:25:57;;;;;;;34.42;18.45;;;5.30;99.90;;;;;;4990870;28;20128;-75
2024/02/14 09:28:23;;;;;;;29.63;16.70;;;5.30;99.90;;;;;;4995856;28;20101;-76
2024/02/14 09:30:48;;;;;;;34.65;18.15;;;5.30;99.90;;;;;;4997683;28;20156;-76
2024/02/14 09:33:14;;;;;;;33.33;17.38;;;5.40;99.90;;;;;;4991726;28;20029;-76
2024/02/14 09:35:44;;;;;;;27.30;15.80;;;5.40;98.10;;;;;;5067493;28;20084;-76
2024/02/14 09:38:12;;;;;;;28.92;17.10;;;5.40;96.70;;;;;;5085224;28;20054;-76
2024/02/14 09:40:39;;;;;;;26.08;14.55;;;5.40;96.60;;;;;;5010824;28;20022;-75
2024/02/14 09:43:22;;;;;;;25.02;13.85;;;5.50;96.60;;;;;;5072901;28;20034;-76
2024/02/14 09:45:50;;;;;;;25.17;13.95;;;5.40;91.60;;;;;;5068209;28;20022;-75
2024/02/14 09:48:18;;;;;;;23.60;11.82;;;5.50;92.70;;;;;;5065281;28;20113;-76
2024/02/14 09:50:45;;;;;;;13.95;7.45;;;5.60;91.60;;;;;;5068992;28;20034;-76
2024/02/14 09:53:11;;;;;;;15.07;8.43;;;5.60;84.20;;;;;;4999112;28;20018;-74
2024/02/14 09:55:38;;;;;;;13.70;7.35;;;5.80;83.60;;;;;;5074718;28;20113;-75
2024/02/14 09:58:06;;;;;;;15.75;9.23;;;5.80;81.00;;;;;;5009299;28;20018;-74
2024/02/14 10:00:33;;;;;;;15.48;8.30;;;5.80;80.00;;;;;;5007429;28;20019;-74
2024/02/14 10:02:58;;;;;;;17.38;9.43;;;6.00;80.30;;;;;;5089613;27;20406;-76
2024/02/14 10:05:25;;;;;;;18.33;8.82;;;5.90;78.60;;;;;;5002654;28;20026;-76
2024/02/14 10:07:50;;;;;;;17.95;7.43;;;5.90;77.60;;;;;;5074415;28;20025;-75
2024/02/14 10:10:16;;;;;;;14.68;8.73;;;6.00;76.70;;;;;;5078023;28;20087;-76
2024/02/14 10:12:42;;;;;;;11.88;7.47;;;6.10;77.80;;;;;;5004373;28;20029;-77
2024/02/14 10:15:09;;;;;;;15.90;8.35;;;6.10;75.70;;;;;;5070120;28;20018;-74
2024/02/14 10:17:34;;;;;;;9.98;6.50;;;6.20;76.10;;;;;;4996197;28;20031;-75
2024/02/14 10:20:05;;;;;;;10.20;5.82;;;6.30;72.90;;;;;;5062274;28;20037;-75
2024/02/14 10:22:37;;;;;;;11.18;6.20;;;6.30;72.40;;;;;;5009786;28;20069;-75
2024/02/14 10:25:08;;;;;;;9.95;4.85;;;6.40;72.80;;;;;;4994096;28;20077;-74
2024/02/14 10:27:38;;;;;;;7.85;5.57;;;6.30;68.60;;;;;;5073542;28;20122;-76
2024/02/14 10:30:10;;;;;;;11.25;6.90;;;6.40;69.20;;;;;;4997604;28;20014;-75
2024/02/14 10:32:38;;;;;;;9.25;5.53;;;6.40;71.30;;;;;;5057331;28;20045;-76
2024/02/14 10:35:08;;;;;;;9.20;5.38;;;6.40;70.70;;;;;;5047156;28;20028;-76
2024/02/14 10:37:36;;;;;;;7.32;5.20;;;6.40;70.00;;;;;;5060887;28;20437;-77
2024/02/14 10:40:03;;;;;;;12.50;6.40;;;6.40;70.20;;;;;;5006330;28;20070;-76
2024/02/14 10:42:29;;;;;;;8.82;6.03;;;6.50;70.80;;;;;;5001256;28;20045;-77
2024/02/14 10:44:55;;;;;;;12.38;6.40;;;6.50;69.90;;;;;;5007674;28;20090;-74
2024/02/14 10:47:24;;;;;;;9.73;6.32;;;6.50;69.80;;;;;;4998401;28;20046;-76
2024/02/14 10:49:51;;;;;;;10.63;6.57;;;6.60;70.00;;;;;;4999672;28;20030;-74
2024/02/14 10:52:19;;;;;;;11.98;6.90;;;6.80;71.60;;;;;;5068789;28;20038;-74
2024/02/14 10:54:56;;;;;;;12.15;6.97;;;6.80;70.90;;;;;;4996274;28;20057;-74
2024/02/14 10:57:24;;;;;;;13.65;5.88;;;7.00;71.00;;;;;;5074699;28;20119;-75
2024/02/14 10:59:51;;;;;;;8.52;5.65;;;7.00;68.30;;;;;;5073491;28;20387;-75
2024/02/14 11:02:18;;;;;;;10.00;5.53;;;7.00;69.10;;;;;;5072707;28;20049;-74
2024/02/14 11:04:45;;;;;;;9.73;5.95;;;7.00;68.00;;;;;;4998758;28;20372;-74
2024/02/14 11:07:11;;;;;;;8.52;5.65;;;7.00;68.20;;;;;;4989621;28;20026;-75
2024/02/14 11:09:37;;;;;;;8.27;5.50;;;7.20;68.60;;;;;;5087906;28;20501;-75
2024/02/14 11:12:06;;;;;;;10.88;6.35;;;7.20;67.20;;;;;;5000480;28;20030;-75
2024/02/14 11:14:35;;;;;;;8.45;4.78;;;7.30;67.10;;;;;;5007735;28;20015;-75
2024/02/14 11:17:09;;;;;;;6.63;4.75;;;7.20;65.60;;;;;;5075670;28;20049;-74
2024/02/14 11:19:36;;;;;;;8.93;5.20;;;7.20;65.80;;;;;;5006442;28;20067;-74
2024/02/14 11:22:15;;;;;;;6.38;4.97;;;7.10;65.30;;;;;;5005813;28;20034;-74
2024/02/14 11:24:41;;;;;;;9.50;5.35;;;7.10;66.20;;;;;;5007357;28;20475;-74
2024/02/14 11:27:11;;;;;;;8.95;5.97;;;7.10;65.60;;;;;;5001895;28;20052;-75
2024/02/14 11:29:51;;;;;;;7.47;5.72;;;7.10;65.70;;;;;;5075516;28;20141;-75
2024/02/14 11:32:17;;;;;;;8.07;4.78;;;7.20;65.50;;;;;;4997435;28;20073;-75
2024/02/14 11:34:44;;;;;;;9.43;5.63;;;7.10;64.70;;;;;;4994598;28;20027;-74
2024/02/14 11:37:09;;;;;;;10.85;6.15;;;7.00;65.30;;;;;;5057355;28;20041;-75
2024/02/14 11:39:36;;;;;;;10.55;6.10;;;7.00;64.80;;;;;;5074010;28;20046;-77
2024/02/14 11:42:02;;;;;;;7.95;5.68;;;7.00;64.90;;;;;;5073664;28;20034;-75
2024/02/14 11:44:28;;;;;;;8.18;5.45;;;7.00;64.70;;;;;;5005181;28;20048;-76
2024/02/14 11:46:54;;;;;;;11.82;5.00;;;7.00;64.10;;;;;;5074355;28;20041;-75
2024/02/14 11:49:20;;;;;;;6.47;4.75;;;7.00;65.30;;;;;;4998963;28;20026;-77
2024/02/14 11:51:47;;;;;;;10.20;5.20;;;7.10;65.40;;;;;;5075398;28;20428;-77
2024/02/14 11:54:13;;;;;;;12.88;5.35;;;7.20;65.40;;;;;;5070798;28;20525;-77
2024/02/14 11:56:39;;;;;;;17.08;7.53;;;7.30;66.20;;;;;;5077713;28;20034;-75
2024/02/14 11:59:14;;;;;;;8.45;5.30;;;7.30;66.30;;;;;;5079272;28;20026;-76
2024/02/14 12:01:40;;;;;;;9.68;4.82;;;7.40;65.80;;;;;;5076198;28;20034;-76
2024/02/14 12:04:11;;;;;;;14.32;8.07;;;7.30;63.50;;;;;;5003896;28;20053;-77
2024/02/14 12:06:41;;;;;;;11.38;6.22;;;7.40;64.30;;;;;;5075582;28;20080;-75
2024/02/14 12:09:08;;;;;;;24.90;15.52;;;7.40;63.80;;;;;;5069514;28;20428;-75
2024/02/14 12:11:37;;;;;;;18.65;11.15;;;7.30;63.70;;;;;;5005360;28;20033;-78
2024/02/14 12:14:07;;;;;;;30.48;19.45;;;7.30;64.00;;;;;;5071078;28;20026;-78
2024/02/14 12:16:39;;;;;;;29.35;16.30;;;7.30;63.60;;;;;;4998833;28;20105;-76
2024/02/14 12:19:09;;;;;;;23.83;16.20;;;7.40;64.10;;;;;;5062948;28;20026;-77
2024/02/14 12:21:39;;;;;;;16.30;9.73;;;7.50;64.30;;;;;;5076056;28;20030;-78
2024/02/14 12:24:12;;;;;;;16.73;9.90;;;7.60;63.90;;;;;;5060704;28;20079;-76
2024/02/14 12:26:38;;;;;;;32.65;27.95;;;7.60;63.90;;;;;;4996414;28;20030;-78
2024/02/14 12:29:06;;;;;;;10.82;7.38;;;7.60;63.60;;;;;;5078125;28;20021;-77
2024/02/14 12:31:33;;;;;;;53.78;27.23;;;7.60;64.10;;;;;;5077943;28;20022;-77
2024/02/14 12:34:01;;;;;;;17.90;9.00;;;7.60;62.70;;;;;;5065110;28;20046;-76
2024/02/14 12:36:28;;;;;;;9.35;7.78;;;7.70;62.90;;;;;;5058294;28;20110;-78